createdAt,value
2022-09-06T00:01:10.099Z,100.00
2022-09-06T00:03:37.660Z,100.00
2022-09-06T00:06:09.323Z,100.00
2022-09-06T00:08:36.957Z,100.00
2022-09-06T00:11:04.701Z,100.00
2022-09-06T00:13:34.179Z,100.00
2022-09-06T00:16:11.916Z,100.00
2022-09-06T00:18:39.576Z,100.00
2022-09-06T00:21:14.447Z,100.00
2022-09-06T00:23:42.106Z,100.00
2022-09-06T00:26:09.650Z,100.00
2022-09-06T00:28:38.812Z,100.00
2022-09-06T00:31:10.259Z,100.00
2022-09-06T00:33:37.919Z,100.00
2022-09-06T00:36:05.511Z,100.00
2022-09-06T00:38:33.055Z,100.00
2022-09-06T00:41:00.611Z,100.00
2022-09-06T00:43:28.175Z,100.00
2022-09-06T00:45:57.293Z,100.00
2022-09-06T00:48:25.387Z,100.00
2022-09-06T00:50:54.437Z,100.00
2022-09-06T00:53:22.283Z,100.00
2022-09-06T00:55:50.119Z,100.00
2022-09-06T00:58:17.930Z,100.00
2022-09-06T01:00:45.849Z,100.00
2022-09-06T01:03:15.198Z,100.00
2022-09-06T01:05:49.674Z,100.00
2022-09-06T01:08:30.848Z,100.00
2022-09-06T01:11:05.361Z,100.00
2022-09-06T01:13:38.316Z,100.00
2022-09-06T01:16:12.699Z,100.00
2022-09-06T01:18:50.797Z,100.00
2022-09-06T01:21:22.936Z,100.00
2022-09-06T01:24:02.635Z,100.00
2022-09-06T01:26:44.985Z,100.00
2022-09-06T01:29:16.929Z,100.00
2022-09-06T01:31:47.370Z,100.00
2022-09-06T01:34:21.268Z,100.00
2022-09-06T01:37:09.052Z,100.00
2022-09-06T01:39:38.458Z,100.00
2022-09-06T01:42:08.596Z,100.00
2022-09-06T01:44:38.720Z,100.00
2022-09-06T01:47:12.776Z,100.00
2022-09-06T01:49:46.918Z,100.00
2022-09-06T01:52:17.850Z,100.00
2022-09-06T01:54:58.265Z,100.00
2022-09-06T01:57:32.956Z,100.00
2022-09-06T02:00:07.760Z,100.00
2022-09-06T02:02:47.278Z,100.00
2022-09-06T02:05:18.707Z,100.00
2022-09-06T02:07:47.840Z,100.00
2022-09-06T02:10:17.888Z,100.00
2022-09-06T02:12:47.419Z,100.00
2022-09-06T02:15:17.914Z,100.00
2022-09-06T02:17:49.655Z,100.00
2022-09-06T02:20:18.921Z,100.00
2022-09-06T02:22:48.319Z,100.00
2022-09-06T02:25:19.732Z,100.00
2022-09-06T02:27:47.382Z,100.00
2022-09-06T02:30:16.439Z,100.00
2022-09-06T02:32:47.098Z,100.00
2022-09-06T02:35:16.187Z,100.00
2022-09-06T02:37:44.462Z,100.00
2022-09-06T02:40:12.427Z,100.00
2022-09-06T02:42:40.600Z,100.00
2022-09-06T02:45:08.676Z,100.00
2022-09-06T02:47:37.611Z,100.00
2022-09-06T02:50:05.297Z,100.00
2022-09-06T02:52:32.864Z,100.00
2022-09-06T02:55:00.498Z,100.00
2022-09-06T02:57:28.064Z,100.00
2022-09-06T02:59:55.650Z,100.00
2022-09-06T03:02:23.335Z,100.00
2022-09-06T03:04:52.349Z,100.00
2022-09-06T03:07:19.881Z,100.00
2022-09-06T03:09:47.397Z,100.00
2022-09-06T03:12:14.919Z,100.00
2022-09-06T03:14:42.454Z,100.00
2022-09-06T03:17:10.012Z,100.00
2022-09-06T03:19:37.534Z,100.00
2022-09-06T03:22:06.485Z,100.00
2022-09-06T03:24:34.031Z,100.00
2022-09-06T03:27:01.584Z,100.00
2022-09-06T03:29:29.127Z,100.00
2022-09-06T03:31:56.713Z,100.00
2022-09-06T03:34:24.357Z,100.00
2022-09-06T03:36:51.889Z,100.00
2022-09-06T03:39:21.254Z,100.00
2022-09-06T03:41:48.795Z,100.00
2022-09-06T03:44:16.309Z,100.00
2022-09-06T03:46:43.808Z,100.00
2022-09-06T03:49:11.398Z,100.00
2022-09-06T03:51:38.920Z,100.00
2022-09-06T03:54:06.648Z,100.00
2022-09-06T03:56:35.689Z,100.00
2022-09-06T03:59:03.264Z,100.00
2022-09-06T04:01:30.933Z,100.00
2022-09-06T04:03:58.635Z,100.00
2022-09-06T04:06:26.166Z,100.00
2022-09-06T04:08:53.753Z,100.00
2022-09-06T04:11:21.365Z,100.00
2022-09-06T04:13:50.293Z,100.00
2022-09-06T04:16:18.716Z,100.00
2022-09-06T04:18:46.318Z,100.00
2022-09-06T04:21:13.858Z,100.00
2022-09-06T04:23:41.468Z,100.00
2022-09-06T04:26:09.026Z,100.00
2022-09-06T04:28:36.582Z,100.00
2022-09-06T04:31:05.710Z,100.00
2022-09-06T04:33:34.206Z,100.00
2022-09-06T04:36:02.843Z,100.00
2022-09-06T04:38:31.893Z,100.00
2022-09-06T04:40:59.374Z,100.00
2022-09-06T04:43:26.888Z,100.00
2022-09-06T04:45:54.536Z,100.00
2022-09-06T04:48:23.564Z,100.00
2022-09-06T04:50:51.065Z,100.00
2022-09-06T04:53:18.659Z,100.00
2022-09-06T04:55:46.259Z,100.00
2022-09-06T04:58:13.791Z,100.00
2022-09-06T05:00:44.507Z,100.00
2022-09-06T05:03:12.128Z,100.00
2022-09-06T05:05:41.024Z,100.00
2022-09-06T05:08:08.590Z,100.00
2022-09-06T05:10:36.147Z,100.00
2022-09-06T05:13:03.657Z,100.00
2022-09-06T05:15:31.168Z,100.00
2022-09-06T05:18:03.161Z,100.00
2022-09-06T05:20:30.675Z,100.00
2022-09-06T05:22:59.585Z,100.00
2022-09-06T05:25:27.143Z,100.00
2022-09-06T05:27:54.705Z,100.00
2022-09-06T05:30:22.297Z,100.00
2022-09-06T05:32:49.811Z,100.00
2022-09-06T05:35:17.335Z,100.00
2022-09-06T05:37:44.913Z,100.00
2022-09-06T05:40:15.544Z,100.00
2022-09-06T05:42:43.107Z,100.00
2022-09-06T05:45:11.053Z,100.00
2022-09-06T05:47:38.556Z,100.00
2022-09-06T05:50:06.937Z,100.00
2022-09-06T05:52:35.082Z,100.00
2022-09-06T05:55:02.767Z,100.00
2022-09-06T05:57:31.646Z,100.00
2022-09-06T05:59:59.336Z,100.00
2022-09-06T06:02:26.913Z,100.00
2022-09-06T06:04:55.524Z,100.00
2022-09-06T06:07:23.081Z,100.00
2022-09-06T06:09:50.593Z,100.00
2022-09-06T06:12:18.141Z,100.00
2022-09-06T06:14:47.012Z,100.00
2022-09-06T06:17:14.588Z,100.00
2022-09-06T06:19:42.105Z,100.00
2022-09-06T06:22:09.607Z,100.00
2022-09-06T06:24:37.205Z,100.00
2022-09-06T06:27:04.970Z,100.00
2022-09-06T06:29:32.578Z,100.00
2022-09-06T06:32:01.500Z,100.00
2022-09-06T06:34:29.082Z,100.00
2022-09-06T06:36:56.601Z,100.00
2022-09-06T06:39:24.188Z,100.00
2022-09-06T06:41:51.802Z,100.00
2022-09-06T06:44:32.171Z,100.00
2022-09-06T06:47:02.562Z,100.00
2022-09-06T06:49:30.145Z,100.00
2022-09-06T06:51:57.698Z,100.00
2022-09-06T06:54:25.240Z,100.00
2022-09-06T06:56:52.799Z,100.00
2022-09-06T06:59:20.563Z,100.00
2022-09-06T07:01:49.895Z,100.00
2022-09-06T07:04:19.140Z,100.00
2022-09-06T07:12:22.531Z,100.00
2022-09-06T07:14:50.023Z,100.00
2022-09-06T07:22:33.850Z,100.00
2022-09-06T07:25:01.673Z,100.00
2022-09-06T07:30:16.748Z,100.00
2022-09-06T07:32:44.268Z,100.00
2022-09-06T07:35:13.824Z,100.00
2022-09-06T07:37:41.416Z,100.00
2022-09-06T07:40:09.748Z,98.19
2022-09-06T07:42:37.390Z,93.00
2022-09-06T07:45:05.226Z,89.10
2022-09-06T07:53:13.013Z,85.66
2022-09-06T07:55:43.314Z,85.29
2022-09-06T07:58:11.005Z,85.46
2022-09-06T08:00:41.121Z,82.48
2022-09-06T08:03:08.933Z,81.06
2022-09-06T08:11:13.654Z,70.61
2022-09-06T08:13:42.174Z,63.41
2022-09-06T08:16:11.330Z,63.83
2022-09-06T08:18:39.241Z,65.23
2022-09-06T08:21:12.168Z,62.64
2022-09-06T08:23:43.081Z,59.85
2022-09-06T08:26:10.725Z,61.73
2022-09-06T08:28:38.338Z,59.33
2022-09-06T08:31:06.343Z,59.09
2022-09-06T08:33:33.980Z,55.42
2022-09-06T08:36:01.624Z,53.87
2022-09-06T08:38:30.768Z,51.60
2022-09-06T08:41:07.898Z,51.94
2022-09-06T08:43:35.431Z,50.01
2022-09-06T08:46:04.230Z,47.65
2022-09-06T08:48:34.469Z,48.01
2022-09-06T08:51:09.952Z,48.09
2022-09-06T08:53:41.489Z,44.71
2022-09-06T08:56:14.220Z,44.66
2022-09-06T08:58:59.049Z,47.87
2022-09-06T09:01:33.514Z,45.25
2022-09-06T09:04:03.827Z,42.87
2022-09-06T09:06:33.007Z,47.13
2022-09-06T09:09:05.248Z,43.73
2022-09-06T09:11:33.667Z,45.64
2022-09-06T09:14:04.813Z,43.22
2022-09-06T09:16:32.541Z,44.48
2022-09-06T09:19:01.217Z,46.86
2022-09-06T09:21:30.974Z,45.93
2022-09-06T09:23:59.825Z,45.24
2022-09-06T09:26:31.987Z,48.13
2022-09-06T09:29:09.915Z,46.18
2022-09-06T09:31:39.323Z,50.39
2022-09-06T09:34:11.429Z,52.14
2022-09-06T09:36:39.372Z,50.77
2022-09-06T09:39:10.276Z,50.21
2022-09-06T09:41:41.212Z,51.74
2022-09-06T09:44:10.990Z,55.47
2022-09-06T09:46:40.063Z,53.17
2022-09-06T09:49:09.189Z,50.36
2022-09-06T09:51:37.565Z,51.43
2022-09-06T09:54:06.703Z,49.71
2022-09-06T09:56:41.080Z,48.68
2022-09-06T09:59:16.541Z,49.35
2022-09-06T10:01:44.099Z,47.40
2022-09-06T10:07:14.327Z,50.73
2022-09-06T10:09:42.856Z,49.93
2022-09-06T10:12:14.562Z,44.39
2022-09-06T10:14:43.039Z,45.56
2022-09-06T10:17:18.600Z,43.96
2022-09-06T10:19:47.297Z,46.03
2022-09-06T10:22:27.263Z,45.47
2022-09-06T10:25:15.800Z,48.76
2022-09-06T10:28:10.579Z,48.75
2022-09-06T10:30:44.156Z,43.95
2022-09-06T10:33:19.673Z,44.41
2022-09-06T10:35:47.283Z,42.35
2022-09-06T10:38:25.803Z,39.93
2022-09-06T10:40:57.681Z,41.65
2022-09-06T10:43:28.128Z,43.53
2022-09-06T10:45:59.074Z,44.01
2022-09-06T10:48:29.690Z,44.18
2022-09-06T10:50:59.738Z,45.24
2022-09-06T10:53:33.504Z,47.54
2022-09-06T10:56:05.734Z,50.69
2022-09-06T11:01:30.314Z,54.88
2022-09-06T11:04:04.435Z,54.06
2022-09-06T11:06:38.001Z,52.41
2022-09-06T11:09:10.754Z,51.42
2022-09-06T11:11:42.698Z,52.53
2022-09-06T11:14:13.339Z,54.70
2022-09-06T11:16:44.599Z,56.75
2022-09-06T11:19:17.559Z,56.19
2022-09-06T11:21:54.227Z,58.06
2022-09-06T11:24:30.513Z,59.12
2022-09-06T11:27:01.831Z,61.37
2022-09-06T11:29:31.932Z,64.07
2022-09-06T11:32:16.663Z,66.41
2022-09-06T11:34:52.820Z,67.45
2022-09-06T11:37:25.579Z,68.27
2022-09-06T11:43:18.812Z,67.19
2022-09-06T11:45:49.608Z,67.79
2022-09-06T11:48:37.602Z,67.67
2022-09-06T11:51:07.574Z,67.00
2022-09-06T11:53:36.315Z,68.06
2022-09-06T11:56:12.443Z,67.05
2022-09-06T11:58:48.591Z,64.58
2022-09-06T12:01:37.826Z,63.55
2022-09-06T12:04:10.442Z,60.48
2022-09-06T12:06:39.792Z,59.86
2022-09-06T12:09:26.255Z,60.18
2022-09-06T12:11:55.884Z,54.46
2022-09-06T12:14:31.244Z,55.41
2022-09-06T12:17:25.879Z,56.24
2022-09-06T12:19:56.190Z,56.43
2022-09-06T12:22:42.260Z,57.25
2022-09-06T12:25:17.177Z,59.42
2022-09-06T12:27:52.137Z,61.43
2022-09-06T12:30:31.699Z,62.22
2022-09-06T12:32:59.604Z,63.52
2022-09-06T12:38:23.254Z,62.37
2022-09-06T12:40:56.362Z,63.18
2022-09-06T12:43:23.904Z,61.06
2022-09-06T12:45:52.538Z,60.40
2022-09-06T12:48:26.992Z,60.53
2022-09-06T12:51:03.100Z,62.30
2022-09-06T12:53:31.690Z,64.43
2022-09-06T12:56:09.182Z,65.46
2022-09-06T12:58:38.673Z,66.63
2022-09-06T13:01:12.439Z,67.88
2022-09-06T13:03:41.850Z,68.06
2022-09-06T13:06:13.722Z,67.72
2022-09-06T13:08:45.492Z,66.97
2022-09-06T13:11:14.599Z,68.04
2022-09-06T13:13:47.522Z,66.46
2022-09-06T13:16:19.961Z,67.77
2022-09-06T13:18:47.702Z,66.29
2022-09-06T13:21:25.446Z,66.35
2022-09-06T13:23:53.033Z,68.04
2022-09-06T13:26:33.068Z,69.13
2022-09-06T13:29:09.738Z,69.81
2022-09-06T13:31:37.419Z,70.39
2022-09-06T13:34:05.037Z,70.99
2022-09-06T13:36:34.055Z,71.90
2022-09-06T13:39:04.282Z,72.33
2022-09-06T13:41:37.504Z,71.27
2022-09-06T13:44:06.046Z,71.42
2022-09-06T13:46:35.103Z,71.11
2022-09-06T13:49:02.988Z,71.10
2022-09-06T13:51:30.610Z,70.78
2022-09-06T13:54:07.602Z,70.86
2022-09-06T13:56:35.180Z,71.16
2022-09-06T13:59:02.767Z,70.87
2022-09-06T14:01:30.505Z,70.06
2022-09-06T14:03:58.215Z,70.87
2022-09-06T14:06:25.842Z,73.57
2022-09-06T14:09:06.830Z,76.13
2022-09-06T14:11:36.899Z,78.14
2022-09-06T14:14:04.595Z,79.34
2022-09-06T14:16:32.289Z,80.59
2022-09-06T14:18:59.820Z,81.82
2022-09-06T14:21:27.645Z,81.54
2022-09-06T14:23:55.235Z,83.30
2022-09-06T14:26:23.564Z,84.41
2022-09-06T14:28:52.577Z,84.78
2022-09-06T14:31:21.080Z,86.54
2022-09-06T14:33:48.700Z,86.29
2022-09-06T14:36:17.509Z,87.50
2022-09-06T14:38:45.853Z,88.04
2022-09-06T14:41:14.666Z,89.29
2022-09-06T14:43:43.346Z,88.96
2022-09-06T14:46:13.745Z,89.16
2022-09-06T14:48:42.505Z,88.74
2022-09-06T14:51:11.216Z,89.64
2022-09-06T14:53:40.926Z,89.91
2022-09-06T14:56:09.277Z,89.56
2022-09-06T14:58:38.035Z,90.19
2022-09-06T15:01:09.774Z,90.00
2022-09-06T15:03:38.817Z,88.95
2022-09-06T15:06:06.558Z,87.79
2022-09-06T15:08:34.109Z,88.14
2022-09-06T15:11:02.075Z,89.27
2022-09-06T15:13:29.713Z,90.12
2022-09-06T15:15:57.836Z,90.50
2022-09-06T15:18:25.427Z,90.75
2022-09-06T15:20:54.598Z,91.04
2022-09-06T15:23:25.059Z,90.82
2022-09-06T15:25:54.114Z,91.17
2022-09-06T15:28:21.839Z,91.01
2022-09-06T15:30:49.892Z,90.16
2022-09-06T15:33:17.799Z,89.27
2022-09-06T15:35:45.306Z,90.51
2022-09-06T15:38:14.236Z,90.90
2022-09-06T15:40:41.882Z,91.41
2022-09-06T15:43:09.436Z,91.35
2022-09-06T15:45:46.169Z,91.53
2022-09-06T15:48:15.096Z,91.79
2022-09-06T15:50:51.403Z,92.26
2022-09-06T15:53:21.004Z,91.86
2022-09-06T15:55:58.008Z,91.00
2022-09-06T15:58:26.611Z,89.78
2022-09-06T16:01:00.996Z,90.30
2022-09-06T16:03:28.813Z,89.09
2022-09-06T16:08:50.905Z,87.64
2022-09-06T16:11:19.326Z,86.50
2022-09-06T16:13:47.042Z,85.68
2022-09-06T16:16:16.002Z,86.70
2022-09-06T16:18:44.375Z,86.03
2022-09-06T16:21:12.806Z,86.93
2022-09-06T16:23:41.217Z,85.79
2022-09-06T16:26:10.282Z,85.66
2022-09-06T16:28:38.556Z,84.92
2022-09-06T16:31:07.531Z,84.39
2022-09-06T16:33:36.143Z,84.58
2022-09-06T16:36:05.184Z,85.05
2022-09-06T16:38:33.388Z,84.89
2022-09-06T16:41:02.083Z,84.27
2022-09-06T16:43:34.328Z,85.02
2022-09-06T16:46:03.045Z,85.46
2022-09-06T16:48:31.052Z,85.68
2022-09-06T16:50:58.584Z,86.28
2022-09-06T16:53:26.152Z,86.74
2022-09-06T16:55:53.835Z,87.15
2022-09-06T16:58:21.743Z,87.42
2022-09-06T17:00:51.802Z,86.56
2022-09-06T17:03:19.374Z,85.82
2022-09-06T17:05:50.533Z,84.98
2022-09-06T17:08:18.087Z,84.10
2022-09-06T17:10:45.711Z,84.21
2022-09-06T17:13:13.609Z,84.31
2022-09-06T17:15:55.103Z,84.30
2022-09-06T17:18:25.168Z,83.21
2022-09-06T17:20:56.757Z,82.89
2022-09-06T17:23:24.519Z,83.23
2022-09-06T17:25:52.134Z,84.14
2022-09-06T17:28:19.765Z,84.94
2022-09-06T17:30:47.758Z,86.58
2022-09-06T17:33:17.596Z,87.12
2022-09-06T17:35:46.953Z,87.74
2022-09-06T17:38:15.717Z,87.95
2022-09-06T17:40:43.313Z,87.77
2022-09-06T17:43:10.869Z,88.11
2022-09-06T17:45:39.102Z,88.23
2022-09-06T17:48:06.755Z,88.52
2022-09-06T17:50:34.544Z,88.48
2022-09-06T17:53:03.550Z,88.51
2022-09-06T17:55:31.280Z,88.79
2022-09-06T17:57:59.463Z,89.40
2022-09-06T18:00:27.048Z,90.47
2022-09-06T18:02:55.202Z,90.48
2022-09-06T18:05:22.973Z,91.04
2022-09-06T18:07:50.652Z,91.56
2022-09-06T18:10:19.662Z,91.58
2022-09-06T18:12:47.220Z,91.74
2022-09-06T18:15:14.795Z,91.73
2022-09-06T18:17:42.345Z,91.88
2022-09-06T18:35:30.380Z,93.80
2022-09-06T18:37:57.894Z,94.09
2022-09-06T18:40:25.473Z,94.65
2022-09-06T18:42:53.070Z,95.11
2022-09-06T18:45:20.621Z,95.46
2022-09-06T18:47:49.235Z,95.74
2022-09-06T18:50:17.083Z,96.31
2022-09-06T18:52:45.995Z,96.29
2022-09-06T18:55:13.577Z,96.91
2022-09-06T18:57:41.163Z,96.77
2022-09-06T19:00:09.624Z,97.13
2022-09-06T19:02:37.221Z,97.14
2022-09-06T19:05:05.181Z,97.09
2022-09-06T19:07:32.828Z,97.49
2022-09-06T19:10:01.711Z,96.92
2022-09-06T19:12:29.244Z,97.03
2022-09-06T19:14:56.797Z,97.34
2022-09-06T19:17:24.413Z,97.36
2022-09-06T19:19:51.939Z,97.60
2022-09-06T19:22:20.065Z,98.23
2022-09-06T19:24:47.590Z,98.78
2022-09-06T19:27:16.681Z,99.11
2022-09-06T19:32:11.900Z,99.89
2022-09-06T19:34:39.777Z,100.00
2022-09-06T19:37:07.337Z,100.00
2022-09-06T19:39:37.131Z,99.96
2022-09-06T19:42:05.854Z,99.84
2022-09-06T19:44:34.875Z,99.86
2022-09-06T19:47:02.511Z,99.86
2022-09-06T19:49:30.727Z,100.00
2022-09-06T19:51:58.289Z,100.00
2022-09-06T19:54:25.833Z,100.00
2022-09-06T19:56:53.484Z,100.00
2022-09-06T19:59:21.017Z,100.00
2022-09-06T20:01:50.105Z,100.00
2022-09-06T20:04:17.855Z,100.00
2022-09-06T20:06:45.460Z,100.00
2022-09-06T20:09:13.351Z,100.00
2022-09-06T20:11:41.677Z,100.00
2022-09-06T20:14:09.674Z,100.00
2022-09-06T20:16:41.428Z,100.00
2022-09-06T20:19:11.910Z,100.00
2022-09-06T20:21:39.592Z,100.00
2022-09-06T20:24:07.458Z,100.00
2022-09-06T20:26:35.310Z,100.00
2022-09-06T20:29:04.548Z,100.00
2022-09-06T20:31:32.762Z,100.00
2022-09-06T20:34:01.285Z,99.67
2022-09-06T20:36:30.538Z,99.33
2022-09-06T20:38:58.176Z,98.98
2022-09-06T20:41:26.665Z,98.54
2022-09-06T20:43:55.861Z,98.48
2022-09-06T20:46:24.559Z,98.56
2022-09-06T20:48:52.751Z,99.08
2022-09-06T20:51:21.468Z,99.17
2022-09-06T20:53:52.765Z,99.28
2022-09-06T20:56:21.256Z,98.80
2022-09-06T20:58:49.523Z,99.22
2022-09-06T21:01:19.475Z,98.97
2022-09-06T21:03:47.118Z,98.37
2022-09-06T21:06:14.659Z,98.10
2022-09-06T21:08:43.249Z,97.49
2022-09-06T21:11:12.319Z,97.30
2022-09-06T21:13:40.251Z,96.93
2022-09-06T21:16:08.068Z,97.05
2022-09-06T21:18:36.189Z,96.52
2022-09-06T21:21:04.659Z,95.98
2022-09-06T21:23:33.859Z,95.88
2022-09-06T21:26:02.381Z,95.61
2022-09-06T21:28:32.381Z,95.74
2022-09-06T21:31:03.676Z,96.04
2022-09-06T21:33:32.307Z,96.58
2022-09-06T21:36:03.083Z,96.47
2022-09-06T21:38:31.050Z,96.36
2022-09-06T21:40:58.788Z,96.85
2022-09-06T21:43:26.401Z,96.63
2022-09-06T21:45:55.338Z,96.90
2022-09-06T21:48:22.943Z,97.12
2022-09-06T21:50:50.949Z,97.15
2022-09-06T21:53:19.142Z,97.15
2022-09-06T22:08:15.484Z,100.00
2022-09-06T22:11:32.437Z,100.00
2022-09-06T22:21:48.005Z,100.00
2022-09-06T22:24:17.428Z,100.00
2022-09-06T22:30:38.437Z,100.00
2022-09-06T22:33:05.954Z,100.00
